createdAt,value
2022-11-17T00:01:09.559Z,96897.84
2022-11-17T00:06:11.609Z,96892.34
2022-11-17T00:11:13.751Z,96889.56
2022-11-17T00:16:17.372Z,96878.78
2022-11-17T00:21:19.960Z,96880.66
2022-11-17T00:26:24.251Z,96875.13
2022-11-17T00:31:46.098Z,96875.50
2022-11-17T00:36:53.363Z,96879.22
2022-11-17T00:41:55.740Z,96880.28
2022-11-17T00:46:57.765Z,96869.13
2022-11-17T00:51:59.573Z,96865.16
2022-11-17T00:57:01.904Z,96869.41
2022-11-17T01:02:04.012Z,96879.69
2022-11-17T01:07:05.890Z,96881.19
2022-11-17T01:12:07.805Z,96868.81
2022-11-17T01:17:09.645Z,96877.25
2022-11-17T01:22:11.491Z,96861.88
2022-11-17T01:27:13.310Z,96860.28
2022-11-17T01:32:15.141Z,96861.41
2022-11-17T01:37:19.736Z,96851.69
2022-11-17T01:42:24.443Z,96853.25
2022-11-17T01:47:35.188Z,96857.06
2022-11-17T01:52:39.233Z,96849.78
2022-11-17T01:58:00.084Z,96845.91
2022-11-17T02:03:02.322Z,96847.81
2022-11-17T02:08:06.869Z,96827.81
2022-11-17T02:13:09.487Z,96824.75
2022-11-17T02:18:11.665Z,96822.03
2022-11-17T02:23:37.628Z,96827.72
2022-11-17T02:29:04.944Z,96819.66
2022-11-17T02:34:16.604Z,96827.72
2022-11-17T02:39:23.738Z,96822.28
2022-11-17T02:44:44.329Z,96826.03
2022-11-17T02:49:56.717Z,96816.00
2022-11-17T02:55:06.897Z,96818.63
2022-11-17T03:00:16.746Z,96822.78
2022-11-17T03:05:36.916Z,96812.81
2022-11-17T03:10:51.569Z,96813.22
2022-11-17T03:16:32.147Z,96802.53
2022-11-17T03:21:56.136Z,96812.09
2022-11-17T03:27:06.265Z,96800.19
2022-11-17T03:32:10.090Z,96796.97
2022-11-17T03:37:14.830Z,96802.66
2022-11-17T03:42:24.363Z,96801.16
2022-11-17T03:47:28.610Z,96806.53
2022-11-17T03:52:31.284Z,96813.59
2022-11-17T03:57:59.673Z,96808.81
2022-11-17T04:03:01.585Z,96796.84
2022-11-17T04:08:03.702Z,96797.19
2022-11-17T04:13:24.303Z,96792.53
2022-11-17T04:18:27.187Z,96792.13
2022-11-17T04:23:29.024Z,96776.34
2022-11-17T04:28:38.919Z,96784.97
2022-11-17T04:33:42.987Z,96788.47
2022-11-17T04:38:47.304Z,96786.47
2022-11-17T04:43:49.283Z,96776.88
2022-11-17T04:48:55.648Z,96772.97
2022-11-17T04:53:58.074Z,96772.19
2022-11-17T04:58:59.972Z,96764.56
2022-11-17T05:04:07.447Z,96765.25
2022-11-17T05:09:16.405Z,96764.38
2022-11-17T05:14:20.379Z,96753.25
2022-11-17T05:19:24.835Z,96749.34
2022-11-17T05:24:26.729Z,96745.94
2022-11-17T05:29:28.543Z,96759.81
2022-11-17T05:34:30.955Z,96753.91
2022-11-17T05:39:32.760Z,96746.53
2022-11-17T05:44:34.601Z,96749.66
2022-11-17T05:49:36.423Z,96749.22
2022-11-17T05:54:38.251Z,96760.34
2022-11-17T05:59:45.468Z,96749.56
2022-11-17T06:04:49.580Z,96753.72
2022-11-17T06:09:51.970Z,96750.22
2022-11-17T06:14:53.806Z,96760.22
2022-11-17T06:20:01.535Z,96754.97
2022-11-17T06:25:08.447Z,96739.53
2022-11-17T06:30:10.768Z,96744.91
2022-11-17T06:35:14.488Z,96744.91
2022-11-17T06:40:16.676Z,96736.84
2022-11-17T06:45:18.493Z,96742.97
2022-11-17T06:50:20.436Z,96733.38
2022-11-17T06:55:22.287Z,96737.97
2022-11-17T07:00:24.083Z,96732.53
2022-11-17T07:05:25.984Z,96725.66
2022-11-17T07:10:29.237Z,96734.88
2022-11-17T07:15:31.965Z,96728.78
2022-11-17T07:20:33.776Z,96733.38
2022-11-17T07:25:35.677Z,96734.16
2022-11-17T07:30:37.557Z,96721.84
2022-11-17T07:35:39.436Z,96719.59
2022-11-17T07:40:41.579Z,96730.34
2022-11-17T07:45:43.618Z,96729.50
2022-11-17T07:50:45.467Z,96733.44
2022-11-17T07:55:48.288Z,96736.97
2022-11-17T08:00:50.524Z,96729.75
2022-11-17T08:05:53.516Z,96736.00
2022-11-17T08:10:55.324Z,96728.75
2022-11-17T08:15:57.943Z,96730.72
2022-11-17T08:21:03.913Z,96716.97
2022-11-17T08:26:07.665Z,96707.78
2022-11-17T08:31:09.479Z,96721.63
2022-11-17T08:36:11.986Z,96711.69
2022-11-17T08:41:13.946Z,96697.94
2022-11-17T08:46:15.775Z,96711.91
2022-11-17T08:51:17.612Z,96712.06
2022-11-17T08:56:19.505Z,96721.41
2022-11-17T09:01:21.464Z,96724.63
2022-11-17T09:06:23.673Z,96731.63
2022-11-17T09:11:25.596Z,96741.69
2022-11-17T09:16:27.518Z,96744.81
2022-11-17T09:21:31.533Z,96734.53
2022-11-17T09:26:33.363Z,96737.63
2022-11-17T09:31:35.815Z,96723.97
2022-11-17T09:36:37.710Z,96729.06
2022-11-17T09:41:43.686Z,96728.25
2022-11-17T09:47:06.608Z,96730.59
2022-11-17T09:52:19.829Z,96736.78
2022-11-17T09:57:29.161Z,96730.69
2022-11-17T10:02:31.057Z,96743.44
2022-11-17T10:07:34.992Z,96719.19
2022-11-17T10:12:47.755Z,96713.41
2022-11-17T10:17:50.789Z,96714.53
2022-11-17T10:22:54.604Z,96722.66
2022-11-17T10:27:56.402Z,96703.84
2022-11-17T10:33:00.478Z,96693.03
2022-11-17T10:38:02.226Z,96680.38
2022-11-17T10:43:13.193Z,96668.38
2022-11-17T10:48:37.701Z,96660.69
2022-11-17T10:53:46.194Z,96660.59
2022-11-17T10:59:02.493Z,96659.09
2022-11-17T11:04:06.176Z,96662.94
2022-11-17T11:09:19.067Z,96661.78
2022-11-17T11:14:33.958Z,96660.66
2022-11-17T11:19:35.827Z,96658.41
2022-11-17T11:25:14.838Z,96658.44
2022-11-17T11:30:18.351Z,96657.75
2022-11-17T11:35:32.523Z,96657.44
2022-11-17T11:40:41.174Z,96644.78
2022-11-17T11:46:08.368Z,96639.00
2022-11-17T11:51:22.281Z,96634.00
2022-11-17T11:56:33.541Z,96623.16
2022-11-17T12:01:48.997Z,96625.53
2022-11-17T12:07:12.889Z,96619.75
2022-11-17T12:12:20.619Z,96616.22
2022-11-17T12:17:26.161Z,96619.28
2022-11-17T12:22:33.999Z,96610.72
2022-11-17T12:27:35.767Z,96612.66
2022-11-17T12:32:46.589Z,96599.19
2022-11-17T12:37:48.955Z,96603.78
2022-11-17T12:43:15.899Z,96589.16
2022-11-17T12:48:33.435Z,96601.47
2022-11-17T12:53:47.997Z,96590.31
2022-11-17T12:58:53.425Z,96583.78
2022-11-17T13:03:59.409Z,96593.47
2022-11-17T13:09:06.224Z,96591.16
2022-11-17T13:14:14.380Z,96599.22
2022-11-17T13:19:37.250Z,96596.53
2022-11-17T13:24:41.624Z,96601.53
2022-11-17T13:29:43.606Z,96608.50
2022-11-17T13:34:52.626Z,96600.44
2022-11-17T13:39:57.295Z,96588.13
2022-11-17T13:45:02.599Z,96590.09
2022-11-17T13:50:26.219Z,96598.91
2022-11-17T13:55:29.305Z,96584.72
2022-11-17T14:00:32.030Z,96582.09
2022-11-17T14:05:34.222Z,96580.53
2022-11-17T14:10:38.580Z,96587.06
2022-11-17T14:15:42.436Z,96582.84
2022-11-17T14:20:44.493Z,96593.28
2022-11-17T14:25:50.246Z,96584.06
2022-11-17T14:30:56.456Z,96577.94
2022-11-17T14:41:29.153Z,96573.31
2022-11-17T14:46:30.982Z,96579.47
2022-11-17T14:51:32.903Z,96573.25
2022-11-17T14:56:35.019Z,96575.56
2022-11-17T15:01:38.698Z,96575.47
2022-11-17T15:06:40.504Z,96580.06
2022-11-17T15:11:42.310Z,96592.34
2022-11-17T15:16:44.097Z,96591.56
2022-11-17T15:21:45.920Z,96606.94
2022-11-17T15:26:47.803Z,96603.81
2022-11-17T15:31:49.931Z,96592.66
2022-11-17T15:36:51.828Z,96596.84
2022-11-17T15:41:53.756Z,96604.56
2022-11-17T15:46:55.934Z,96607.66
2022-11-17T15:51:57.978Z,96607.31
2022-11-17T15:57:01.533Z,96604.63
2022-11-17T16:02:09.457Z,96595.84
2022-11-17T16:07:11.339Z,96591.94
2022-11-17T16:12:13.243Z,96594.66
2022-11-17T16:17:15.079Z,96596.97
2022-11-17T16:22:16.952Z,96595.41
2022-11-17T16:27:18.746Z,96590.81
2022-11-17T16:32:20.562Z,96588.56
2022-11-17T16:37:22.355Z,96582.75
2022-11-17T16:42:24.153Z,96585.44
2022-11-17T16:47:26.011Z,96573.09
2022-11-17T16:52:27.820Z,96570.78
2022-11-17T16:57:30.167Z,96570.41
2022-11-17T17:02:33.429Z,96576.97
2022-11-17T17:07:35.407Z,96582.34
2022-11-17T17:12:37.334Z,96573.09
2022-11-17T17:17:39.159Z,96576.97
2022-11-17T17:22:40.960Z,96576.97
2022-11-17T17:27:42.819Z,96574.28
2022-11-17T17:32:44.625Z,96577.81
2022-11-17T17:37:46.430Z,96581.66
2022-11-17T17:42:48.252Z,96584.03
2022-11-17T17:47:50.053Z,96587.19
2022-11-17T17:52:51.884Z,96585.59
2022-11-17T17:57:53.731Z,96584.06
2022-11-17T18:02:55.668Z,96578.31
2022-11-17T18:07:57.513Z,96575.59
2022-11-17T18:12:59.341Z,96580.97
2022-11-17T18:18:01.503Z,96581.00
2022-11-17T18:23:03.373Z,96582.56
2022-11-17T18:28:05.368Z,96583.31
2022-11-17T18:33:07.167Z,96581.41
2022-11-17T18:38:09.105Z,96571.72
2022-11-17T18:43:12.551Z,96577.50
2022-11-17T18:48:14.592Z,96576.28
2022-11-17T18:53:16.814Z,96572.81
2022-11-17T18:58:18.708Z,96571.31
2022-11-17T19:03:21.199Z,96568.19
2022-11-17T19:08:23.137Z,96572.38
2022-11-17T19:13:25.599Z,96566.91
2022-11-17T19:18:27.449Z,96561.13
2022-11-17T19:23:31.422Z,96571.16
2022-11-17T19:28:34.029Z,96568.47
2022-11-17T19:33:38.140Z,96578.47
2022-11-17T19:38:40.692Z,96572.72
2022-11-17T19:43:45.341Z,96577.34
2022-11-17T19:48:47.549Z,96590.81
2022-11-17T19:53:50.956Z,96587.00
2022-11-17T19:58:53.880Z,96590.09
2022-11-17T20:03:57.633Z,96577.03
2022-11-17T20:08:59.578Z,96589.34
2022-11-17T20:14:02.471Z,96594.72
2022-11-17T20:19:04.861Z,96600.88
2022-11-17T20:24:07.268Z,96593.53
2022-11-17T20:29:09.284Z,96598.91
2022-11-17T20:34:12.888Z,96582.34
2022-11-17T20:39:16.185Z,96586.94
2022-11-17T20:44:24.539Z,96579.25
2022-11-17T20:49:28.297Z,96576.59
2022-11-17T20:54:30.360Z,96577.03
2022-11-17T20:59:32.225Z,96582.41
2022-11-17T21:04:34.348Z,96564.72
2022-11-17T21:09:36.163Z,96582.50
2022-11-17T21:14:38.031Z,96589.41
2022-11-17T21:19:39.834Z,96598.72
2022-11-17T21:24:41.646Z,96607.22
2022-11-17T21:29:43.431Z,96594.13
2022-11-17T21:34:49.624Z,96600.34
2022-11-17T21:39:52.243Z,96590.34
2022-11-17T21:44:54.048Z,96591.91
2022-11-17T21:49:55.876Z,96591.53
2022-11-17T21:54:57.731Z,96588.06
2022-11-17T21:59:59.550Z,96588.03
2022-11-17T22:05:01.345Z,96600.38
2022-11-17T22:10:03.517Z,96600.34
2022-11-17T22:15:11.349Z,96599.19
2022-11-17T22:20:13.527Z,96601.13
2022-11-17T22:25:42.970Z,96612.34
2022-11-17T22:30:38.928Z,96605.00
2022-11-17T22:35:40.782Z,96610.41
2022-11-17T22:40:42.844Z,96595.75
2022-11-17T22:45:44.752Z,96606.53
2022-11-17T22:50:46.636Z,96601.97
2022-11-17T22:55:48.471Z,96615.44
2022-11-17T23:00:53.032Z,96611.19
2022-11-17T23:05:54.863Z,96601.94
2022-11-17T23:11:34.894Z,96589.22
2022-11-17T23:16:25.561Z,96597.31
2022-11-17T23:21:27.442Z,96614.28
2022-11-17T23:26:29.243Z,96615.78
2022-11-17T23:31:31.104Z,96603.44
2022-11-17T23:36:32.890Z,96615.03
2022-11-17T23:41:34.729Z,96625.06
2022-11-17T23:46:36.999Z,96625.16
2022-11-17T23:51:38.862Z,96619.81
2022-11-17T23:56:41.164Z,96612.91
